createdAt,value
2023-03-19T00:00:39.122Z,17.90
2023-03-19T00:03:06.145Z,14.77
2023-03-19T00:05:33.222Z,20.98
2023-03-19T00:08:00.147Z,15.18
2023-03-19T00:10:26.924Z,13.57
2023-03-19T00:12:53.613Z,13.13
2023-03-19T00:15:20.306Z,12.52
2023-03-19T00:17:47.101Z,13.93
2023-03-19T00:20:15.052Z,10.60
2023-03-19T00:22:42.108Z,10.57
2023-03-19T00:25:09.940Z,11.60
2023-03-19T00:27:38.081Z,12.43
2023-03-19T00:30:09.001Z,12.75
2023-03-19T00:32:36.704Z,12.43
2023-03-19T00:35:06.252Z,9.85
2023-03-19T00:37:33.767Z,11.88
2023-03-19T00:40:00.513Z,10.50
2023-03-19T00:42:27.524Z,11.13
2023-03-19T00:44:54.252Z,9.63
2023-03-19T00:47:21.253Z,9.80
2023-03-19T00:49:48.269Z,12.52
2023-03-19T00:52:15.273Z,11.38
2023-03-19T00:54:42.195Z,8.98
2023-03-19T00:57:09.264Z,10.50
2023-03-19T00:59:36.070Z,12.90
2023-03-19T01:02:03.968Z,11.10
2023-03-19T01:04:30.806Z,12.75
2023-03-19T01:09:25.540Z,11.70
2023-03-19T01:11:52.485Z,9.57
2023-03-19T01:14:19.340Z,9.18
2023-03-19T01:16:46.321Z,10.63
2023-03-19T01:19:13.760Z,9.82
2023-03-19T01:21:41.097Z,13.55
2023-03-19T01:24:07.779Z,11.15
2023-03-19T01:26:34.474Z,9.50
2023-03-19T01:29:01.209Z,10.55
2023-03-19T01:31:28.206Z,10.13
2023-03-19T01:33:54.973Z,9.23
2023-03-19T01:36:22.328Z,8.45
2023-03-19T01:38:49.274Z,10.02
2023-03-19T01:41:16.105Z,8.63
2023-03-19T01:43:43.062Z,7.80
2023-03-19T01:46:32.520Z,8.68
2023-03-19T01:49:03.340Z,9.02
2023-03-19T01:51:34.778Z,10.52
2023-03-19T01:54:05.244Z,9.43
2023-03-19T01:56:37.986Z,10.68
2023-03-19T01:59:12.534Z,8.93
2023-03-19T02:01:50.126Z,7.65
2023-03-19T02:04:17.104Z,9.07
2023-03-19T02:06:44.899Z,7.60
2023-03-19T02:09:12.585Z,8.68
2023-03-19T02:11:39.411Z,7.65
2023-03-19T02:14:06.212Z,6.53
2023-03-19T02:16:33.163Z,7.32
2023-03-19T02:19:01.403Z,7.13
2023-03-19T02:21:28.910Z,8.02
2023-03-19T02:24:28.856Z,7.10
2023-03-19T02:26:57.353Z,7.03
2023-03-19T02:29:24.121Z,6.55
2023-03-19T02:31:51.014Z,9.63
2023-03-19T02:34:21.205Z,6.38
2023-03-19T02:36:54.439Z,8.05
2023-03-19T02:39:45.978Z,5.95
2023-03-19T02:42:14.594Z,7.88
2023-03-19T02:44:41.387Z,5.30
2023-03-19T02:47:08.306Z,7.97
2023-03-19T02:49:36.167Z,8.50
2023-03-19T02:52:02.980Z,8.48
2023-03-19T02:54:29.762Z,7.35
2023-03-19T02:56:56.837Z,8.23
2023-03-19T02:59:23.655Z,9.20
2023-03-19T03:01:50.971Z,7.75
2023-03-19T03:04:17.749Z,7.57
2023-03-19T03:06:44.986Z,10.25
2023-03-19T03:09:12.917Z,9.20
2023-03-19T03:11:41.670Z,10.60
2023-03-19T03:14:08.454Z,10.27
2023-03-19T03:16:35.371Z,9.05
2023-03-19T03:19:02.537Z,11.65
2023-03-19T03:21:29.628Z,10.48
2023-03-19T03:23:56.595Z,13.13
2023-03-19T03:26:23.374Z,9.68
2023-03-19T03:28:50.154Z,9.40
2023-03-19T03:31:17.043Z,8.30
2023-03-19T03:33:43.841Z,8.50
2023-03-19T03:36:11.151Z,9.52
2023-03-19T03:38:37.974Z,9.13
2023-03-19T03:41:05.016Z,8.73
2023-03-19T03:43:31.831Z,8.60
2023-03-19T03:45:58.561Z,10.35
2023-03-19T03:48:26.070Z,8.82
2023-03-19T03:50:52.760Z,8.55
2023-03-19T03:53:19.576Z,10.45
2023-03-19T03:55:46.665Z,8.68
2023-03-19T03:58:13.386Z,11.88
2023-03-19T04:00:40.723Z,9.48
2023-03-19T04:03:07.531Z,10.75
2023-03-19T04:05:34.300Z,8.98
2023-03-19T04:08:01.455Z,10.80
2023-03-19T04:10:28.186Z,9.35
2023-03-19T04:12:54.925Z,10.75
2023-03-19T04:15:21.735Z,8.85
2023-03-19T04:17:48.849Z,10.48
2023-03-19T04:20:18.285Z,11.48
2023-03-19T04:22:45.732Z,9.77
2023-03-19T04:25:12.428Z,10.13
2023-03-19T04:27:39.228Z,9.25
2023-03-19T04:30:06.447Z,10.70
2023-03-19T04:32:33.906Z,8.48
2023-03-19T04:35:00.833Z,9.65
2023-03-19T04:37:27.801Z,9.30
2023-03-19T04:39:54.534Z,8.10
2023-03-19T04:42:21.756Z,9.90
2023-03-19T04:44:48.696Z,7.63
2023-03-19T04:47:15.640Z,10.13
2023-03-19T04:49:42.464Z,6.97
2023-03-19T04:52:09.497Z,9.05
2023-03-19T04:54:36.319Z,8.60
2023-03-19T04:57:03.137Z,7.43
2023-03-19T04:59:29.952Z,7.93
2023-03-19T05:01:56.851Z,9.32
2023-03-19T05:04:24.107Z,8.48
2023-03-19T05:06:51.183Z,8.27
2023-03-19T05:09:18.086Z,11.75
2023-03-19T05:11:44.820Z,7.82
2023-03-19T05:14:11.606Z,12.98
2023-03-19T05:16:38.893Z,9.15
2023-03-19T05:19:05.628Z,8.68
2023-03-19T05:21:32.695Z,9.65
2023-03-19T05:23:59.638Z,10.38
2023-03-19T05:26:29.834Z,6.93
2023-03-19T05:28:56.727Z,9.93
2023-03-19T05:31:23.852Z,8.27
2023-03-19T05:33:50.626Z,6.97
2023-03-19T05:36:18.235Z,9.63
2023-03-19T05:38:44.936Z,7.10
2023-03-19T05:41:11.655Z,8.40
2023-03-19T05:43:38.334Z,7.32
2023-03-19T05:46:05.134Z,7.97
2023-03-19T05:48:32.047Z,6.03
2023-03-19T05:50:59.383Z,7.35
2023-03-19T05:53:26.220Z,7.00
2023-03-19T05:55:52.976Z,8.05
2023-03-19T05:58:19.714Z,9.68
2023-03-19T06:00:48.547Z,8.23
2023-03-19T06:03:15.607Z,9.13
2023-03-19T06:05:42.405Z,8.65
2023-03-19T06:08:09.245Z,9.60
2023-03-19T06:10:36.522Z,8.77
2023-03-19T06:13:04.965Z,7.93
2023-03-19T06:15:32.064Z,9.20
2023-03-19T06:17:59.238Z,8.48
2023-03-19T06:20:26.167Z,8.32
2023-03-19T06:22:53.079Z,8.38
2023-03-19T06:25:19.916Z,9.45
2023-03-19T06:27:46.629Z,6.43
2023-03-19T06:30:14.055Z,7.80
2023-03-19T06:32:41.788Z,9.30
2023-03-19T06:35:09.046Z,10.13
2023-03-19T06:37:36.502Z,7.60
2023-03-19T06:40:04.989Z,7.90
2023-03-19T06:42:32.081Z,7.40
2023-03-19T06:44:58.807Z,10.90
2023-03-19T06:47:26.413Z,7.60
2023-03-19T06:49:53.269Z,7.13
2023-03-19T06:52:20.042Z,6.75
2023-03-19T06:54:46.704Z,7.13
2023-03-19T06:57:13.438Z,6.07
2023-03-19T06:59:40.193Z,6.97
2023-03-19T07:02:09.044Z,8.50
2023-03-19T07:04:36.744Z,8.68
2023-03-19T07:07:05.786Z,7.72
2023-03-19T07:09:32.912Z,8.35
2023-03-19T07:11:59.703Z,7.53
2023-03-19T07:14:26.592Z,8.25
2023-03-19T07:16:53.481Z,7.93
2023-03-19T07:19:20.311Z,6.03
2023-03-19T07:21:47.360Z,7.18
2023-03-19T07:24:14.221Z,7.05
2023-03-19T07:26:42.333Z,6.80
2023-03-19T07:29:09.299Z,7.70
2023-03-19T07:31:36.104Z,6.55
2023-03-19T07:34:03.305Z,5.53
2023-03-19T07:36:30.083Z,7.43
2023-03-19T07:38:57.518Z,8.45
2023-03-19T07:41:24.709Z,6.60
2023-03-19T07:43:51.666Z,5.43
2023-03-19T07:46:18.847Z,6.53
2023-03-19T07:48:46.235Z,5.75
2023-03-19T07:51:13.156Z,8.20
2023-03-19T07:53:40.235Z,7.20
2023-03-19T07:56:07.462Z,5.53
2023-03-19T07:58:34.272Z,6.57
2023-03-19T08:01:01.165Z,4.70
2023-03-19T08:03:28.121Z,4.35
2023-03-19T08:05:55.229Z,4.45
2023-03-19T08:08:22.196Z,4.90
2023-03-19T08:10:50.835Z,4.90
2023-03-19T08:13:17.620Z,3.42
2023-03-19T08:15:44.405Z,4.32
2023-03-19T08:18:11.261Z,5.78
2023-03-19T08:20:38.218Z,6.80
2023-03-19T08:23:05.326Z,7.43
2023-03-19T08:25:32.778Z,7.63
2023-03-19T08:28:02.825Z,8.40
2023-03-19T08:30:29.827Z,6.55
2023-03-19T08:32:56.752Z,8.75
2023-03-19T08:35:24.169Z,10.10
2023-03-19T08:37:51.266Z,8.93
2023-03-19T08:40:18.014Z,10.43
2023-03-19T08:42:45.538Z,8.63
2023-03-19T08:45:14.745Z,7.70
2023-03-19T08:47:42.334Z,11.00
2023-03-19T08:50:10.042Z,7.82
2023-03-19T08:52:37.406Z,10.05
2023-03-19T08:55:05.447Z,8.45
2023-03-19T08:57:32.456Z,7.30
2023-03-19T08:59:59.387Z,5.72
2023-03-19T09:02:26.534Z,7.55
2023-03-19T09:04:53.784Z,5.10
2023-03-19T09:07:20.711Z,5.38
2023-03-19T09:09:47.523Z,5.65
2023-03-19T09:12:17.274Z,6.85
2023-03-19T09:14:44.100Z,6.35
2023-03-19T09:17:13.595Z,4.35
2023-03-19T09:19:42.034Z,5.22
2023-03-19T09:22:08.986Z,5.00
2023-03-19T09:24:38.207Z,6.85
2023-03-19T09:27:06.504Z,5.57
2023-03-19T09:29:33.457Z,5.07
2023-03-19T09:32:00.957Z,8.05
2023-03-19T09:34:28.231Z,9.50
2023-03-19T09:36:55.264Z,6.85
2023-03-19T09:39:22.413Z,8.65
2023-03-19T09:42:08.426Z,11.75
2023-03-19T09:44:44.366Z,9.43
2023-03-19T09:47:35.910Z,10.32
2023-03-19T09:50:16.023Z,10.60
2023-03-19T09:52:51.838Z,11.38
2023-03-19T09:55:25.409Z,8.88
2023-03-19T09:57:55.682Z,11.20
2023-03-19T10:00:28.931Z,10.40
2023-03-19T10:03:04.937Z,10.10
2023-03-19T10:06:02.042Z,12.20
2023-03-19T10:08:51.907Z,10.98
2023-03-19T10:11:34.620Z,8.20
2023-03-19T10:14:25.100Z,8.57
2023-03-19T10:16:54.961Z,7.10
2023-03-19T10:19:40.617Z,8.27
2023-03-19T10:22:15.196Z,8.38
2023-03-19T10:24:44.946Z,7.85
2023-03-19T10:27:19.691Z,8.93
2023-03-19T10:29:46.777Z,10.48
2023-03-19T10:32:38.175Z,9.00
2023-03-19T10:35:21.841Z,9.05
2023-03-19T10:37:52.131Z,10.18
2023-03-19T10:40:26.298Z,10.70
2023-03-19T10:43:03.105Z,10.70
2023-03-19T10:45:39.337Z,10.88
2023-03-19T10:48:12.250Z,9.57
2023-03-19T10:50:48.617Z,9.50
2023-03-19T10:53:15.483Z,10.02
2023-03-19T10:55:55.421Z,8.90
2023-03-19T10:58:30.984Z,8.43
2023-03-19T11:01:11.164Z,6.72
2023-03-19T11:03:57.580Z,6.57
2023-03-19T11:06:36.166Z,8.63
2023-03-19T11:09:15.554Z,7.70
2023-03-19T11:11:58.475Z,6.35
2023-03-19T11:14:38.481Z,6.30
2023-03-19T11:17:20.201Z,6.43
2023-03-19T11:19:56.356Z,6.50
2023-03-19T11:22:32.218Z,6.18
2023-03-19T11:25:26.408Z,8.20
2023-03-19T11:28:01.907Z,7.20
2023-03-19T11:30:40.914Z,7.28
2023-03-19T11:33:33.440Z,5.32
2023-03-19T11:36:16.967Z,5.63
2023-03-19T11:39:05.054Z,6.65
2023-03-19T11:41:54.147Z,5.50
2023-03-19T11:44:48.594Z,5.70
2023-03-19T11:47:34.522Z,5.20
2023-03-19T11:50:24.825Z,5.95
2023-03-19T11:53:28.588Z,4.97
2023-03-19T11:56:15.463Z,5.63
2023-03-19T11:58:54.699Z,6.05
2023-03-19T12:01:42.605Z,5.85
2023-03-19T12:05:03.901Z,8.05
2023-03-19T12:07:49.098Z,6.13
2023-03-19T12:10:27.958Z,5.53
2023-03-19T12:13:03.539Z,7.20
2023-03-19T12:16:02.705Z,5.25
2023-03-19T12:18:44.559Z,5.45
2023-03-19T12:21:37.787Z,7.97
2023-03-19T12:24:19.229Z,4.93
2023-03-19T12:26:54.876Z,4.07
2023-03-19T12:29:30.981Z,6.07
2023-03-19T12:32:16.085Z,4.82
2023-03-19T12:35:09.092Z,3.85
2023-03-19T12:38:03.330Z,4.55
2023-03-19T12:40:51.634Z,5.72
2023-03-19T12:43:37.277Z,7.05
2023-03-19T12:46:33.213Z,5.95
2023-03-19T12:49:14.788Z,5.15
2023-03-19T12:54:14.417Z,4.85
2023-03-19T12:56:48.458Z,5.43
2023-03-19T12:59:37.802Z,4.25
2023-03-19T13:02:23.686Z,5.38
2023-03-19T13:05:09.508Z,4.63
2023-03-19T13:08:02.132Z,5.30
2023-03-19T13:10:32.347Z,5.07
2023-03-19T13:13:01.865Z,4.65
2023-03-19T13:15:41.120Z,4.53
2023-03-19T13:18:39.017Z,6.03
2023-03-19T13:21:28.246Z,5.15
2023-03-19T13:24:09.893Z,3.92
2023-03-19T13:29:19.838Z,4.43
2023-03-19T13:31:47.940Z,5.00
2023-03-19T13:34:17.381Z,5.97
2023-03-19T13:36:59.652Z,5.18
2023-03-19T13:39:29.508Z,6.88
2023-03-19T13:42:08.208Z,4.40
2023-03-19T13:44:40.772Z,5.20
2023-03-19T13:47:26.702Z,5.28
2023-03-19T13:50:22.612Z,5.47
2023-03-19T13:53:13.043Z,4.13
2023-03-19T13:56:00.491Z,3.80
2023-03-19T13:58:47.004Z,7.10
2023-03-19T14:01:40.439Z,5.03
2023-03-19T14:04:18.552Z,4.63
2023-03-19T14:06:52.738Z,6.20
2023-03-19T14:09:32.150Z,4.32
2023-03-19T14:12:17.623Z,5.22
2023-03-19T14:15:17.922Z,4.50
2023-03-19T14:17:51.067Z,4.63
2023-03-19T14:20:28.073Z,3.60
2023-03-19T14:23:08.938Z,5.25
2023-03-19T14:26:07.066Z,4.40
2023-03-19T14:28:56.918Z,4.68
2023-03-19T14:31:30.076Z,4.70
2023-03-19T14:34:11.194Z,4.88
2023-03-19T14:37:03.468Z,8.05
2023-03-19T14:39:32.995Z,7.30
2023-03-19T14:42:14.143Z,5.13
2023-03-19T14:44:50.717Z,5.15
2023-03-19T14:47:43.836Z,4.53
2023-03-19T14:50:44.160Z,4.57
2023-03-19T14:53:19.475Z,7.20
2023-03-19T14:55:51.426Z,5.35
2023-03-19T14:58:20.769Z,4.93
2023-03-19T15:00:50.857Z,8.10
2023-03-19T15:03:37.359Z,5.95
2023-03-19T15:06:09.953Z,5.57
2023-03-19T15:08:40.366Z,6.18
2023-03-19T15:11:24.566Z,7.35
2023-03-19T15:14:08.172Z,4.85
2023-03-19T15:16:44.192Z,4.72
2023-03-19T15:19:12.766Z,5.93
2023-03-19T15:21:39.745Z,6.20
2023-03-19T15:24:14.597Z,6.40
2023-03-19T15:26:41.624Z,5.80
2023-03-19T15:29:12.285Z,8.80
2023-03-19T15:31:51.601Z,9.50
2023-03-19T15:34:28.334Z,7.00
2023-03-19T15:37:04.330Z,6.80
2023-03-19T15:39:35.584Z,7.90
2023-03-19T15:42:05.089Z,7.15
2023-03-19T15:44:37.149Z,9.55
2023-03-19T15:47:07.242Z,9.60
2023-03-19T15:49:44.223Z,10.30
2023-03-19T15:52:16.468Z,8.77
2023-03-19T15:54:43.733Z,10.73
2023-03-19T15:57:14.638Z,9.48
2023-03-19T15:59:42.011Z,8.82
2023-03-19T16:02:38.718Z,12.27
2023-03-19T16:05:21.490Z,9.68
2023-03-19T16:08:00.604Z,11.75
2023-03-19T16:10:38.098Z,8.43
2023-03-19T16:13:27.397Z,10.80
2023-03-19T16:16:08.107Z,11.23
2023-03-19T16:18:53.299Z,11.93
2023-03-19T16:21:36.459Z,11.63
2023-03-19T16:24:21.240Z,10.73
2023-03-19T16:26:48.685Z,10.10
2023-03-19T16:29:28.813Z,10.30
2023-03-19T16:32:01.897Z,10.25
2023-03-19T16:34:53.801Z,12.68
2023-03-19T16:37:34.672Z,10.60
2023-03-19T16:40:21.701Z,8.40
2023-03-19T16:42:54.150Z,8.55
2023-03-19T16:45:30.638Z,8.45
2023-03-19T16:47:59.578Z,9.82
2023-03-19T16:50:37.853Z,8.63
2023-03-19T16:53:32.141Z,9.43
2023-03-19T16:56:01.022Z,6.97
2023-03-19T16:58:42.960Z,8.32
2023-03-19T17:01:20.166Z,9.75
2023-03-19T17:03:47.776Z,9.63
2023-03-19T17:06:16.919Z,14.40
2023-03-19T17:08:44.011Z,11.50
2023-03-19T17:11:28.375Z,14.35
2023-03-19T17:13:57.830Z,9.95
2023-03-19T17:16:26.398Z,9.35
2023-03-19T17:18:53.789Z,12.65
2023-03-19T17:21:30.779Z,12.48
2023-03-19T17:23:57.839Z,13.23
2023-03-19T17:26:28.214Z,11.52
2023-03-19T17:28:56.481Z,15.45
2023-03-19T17:31:33.032Z,13.85
2023-03-19T17:34:11.259Z,20.85
2023-03-19T17:36:38.729Z,18.17
2023-03-19T17:39:07.177Z,15.18
2023-03-19T17:41:35.508Z,12.82
2023-03-19T17:44:05.862Z,14.52
2023-03-19T17:46:38.585Z,13.70
2023-03-19T17:49:05.860Z,12.05
2023-03-19T17:51:33.107Z,18.75
2023-03-19T17:53:59.778Z,10.75
2023-03-19T17:56:26.578Z,10.52
2023-03-19T17:58:53.997Z,11.07
2023-03-19T18:01:27.794Z,10.20
2023-03-19T18:03:56.290Z,14.07
2023-03-19T18:06:32.364Z,10.60
2023-03-19T18:08:59.082Z,10.40
2023-03-19T18:11:26.281Z,11.73
2023-03-19T18:13:53.145Z,10.48
2023-03-19T18:16:30.857Z,14.15
2023-03-19T18:19:03.532Z,11.68
2023-03-19T18:21:31.342Z,11.93
2023-03-19T18:23:58.319Z,11.02
2023-03-19T18:26:25.992Z,12.00
2023-03-19T18:28:52.670Z,13.32
2023-03-19T18:31:25.469Z,14.45
2023-03-19T18:34:00.741Z,10.82
2023-03-19T18:36:31.150Z,11.48
2023-03-19T18:38:58.585Z,9.43
2023-03-19T18:41:28.973Z,10.80
2023-03-19T18:43:56.003Z,9.60
2023-03-19T18:46:30.910Z,8.38
2023-03-19T18:49:04.991Z,12.48
2023-03-19T18:51:31.876Z,13.40
2023-03-19T18:53:58.786Z,8.88
2023-03-19T18:56:29.156Z,8.20
2023-03-19T18:58:58.060Z,10.90
2023-03-19T19:01:25.680Z,12.10
2023-03-19T19:03:52.886Z,9.95
2023-03-19T19:06:44.191Z,8.52
2023-03-19T19:09:13.727Z,10.32
2023-03-19T19:11:44.060Z,11.45
2023-03-19T19:14:21.790Z,11.10
2023-03-19T19:16:49.450Z,11.73
2023-03-19T19:19:23.222Z,11.60
2023-03-19T19:21:51.247Z,14.75
2023-03-19T19:24:18.488Z,14.18
2023-03-19T19:26:47.249Z,17.15
2023-03-19T19:29:22.841Z,21.30
2023-03-19T19:31:49.624Z,30.05
2023-03-19T19:34:16.892Z,32.70
2023-03-19T19:36:43.909Z,36.88
2023-03-19T19:39:10.869Z,40.80
2023-03-19T19:41:38.719Z,38.72
2023-03-19T19:44:05.899Z,52.75
2023-03-19T19:46:33.128Z,45.03
2023-03-19T19:48:59.870Z,58.80
2023-03-19T19:51:28.842Z,62.72
2023-03-19T19:53:55.917Z,67.35
2023-03-19T19:56:25.118Z,70.65
2023-03-19T19:58:54.131Z,73.00
2023-03-19T20:01:23.547Z,70.55
2023-03-19T20:03:50.796Z,74.60
2023-03-19T20:06:18.234Z,77.15
2023-03-19T20:08:46.270Z,72.35
2023-03-19T20:11:22.947Z,79.20
2023-03-19T20:13:54.193Z,71.25
2023-03-19T20:16:24.176Z,81.25
2023-03-19T20:18:53.914Z,71.38
2023-03-19T20:21:22.773Z,72.47
2023-03-19T20:23:53.249Z,76.63
2023-03-19T20:26:23.000Z,70.38
2023-03-19T20:28:51.182Z,75.32
2023-03-19T20:31:32.358Z,75.03
2023-03-19T20:33:59.359Z,75.93
2023-03-19T20:36:26.914Z,68.18
2023-03-19T20:38:54.515Z,72.53
2023-03-19T20:41:24.035Z,77.07
2023-03-19T20:43:52.157Z,81.00
2023-03-19T20:46:21.028Z,83.63
2023-03-19T20:48:48.990Z,81.95
2023-03-19T20:51:19.978Z,75.15
2023-03-19T20:53:48.854Z,80.93
2023-03-19T20:56:17.669Z,78.32
2023-03-19T20:58:45.613Z,83.18
2023-03-19T21:01:14.398Z,85.95
2023-03-19T21:03:41.867Z,81.47
2023-03-19T21:06:23.154Z,77.65
2023-03-19T21:08:53.689Z,75.82
2023-03-19T21:11:22.569Z,61.93
2023-03-19T21:13:52.705Z,76.82
2023-03-19T21:16:22.803Z,66.90
2023-03-19T21:18:50.566Z,75.13
2023-03-19T21:21:19.449Z,75.90
2023-03-19T21:23:56.996Z,78.45
2023-03-19T21:26:25.403Z,87.65
2023-03-19T21:28:55.752Z,74.78
2023-03-19T21:31:23.188Z,73.15
2023-03-19T21:33:55.857Z,79.25
2023-03-19T21:36:24.282Z,83.00
2023-03-19T21:38:52.631Z,77.13
2023-03-19T21:41:29.070Z,85.45
2023-03-19T21:44:22.713Z,88.00
2023-03-19T21:46:50.933Z,84.88
2023-03-19T21:49:18.022Z,84.00
2023-03-19T21:51:45.173Z,79.30
2023-03-19T21:54:12.356Z,80.00
2023-03-19T21:56:42.021Z,85.15
2023-03-19T21:59:33.869Z,83.30
2023-03-19T22:02:00.870Z,95.13
2023-03-19T22:04:27.952Z,78.38
2023-03-19T22:06:54.934Z,87.65
2023-03-19T22:09:21.860Z,90.00
2023-03-19T22:11:48.833Z,90.35
2023-03-19T22:14:20.110Z,84.80
2023-03-19T22:16:52.880Z,94.75
2023-03-19T22:19:20.958Z,88.45
2023-03-19T22:21:48.491Z,88.18
2023-03-19T22:24:16.143Z,89.53
2023-03-19T22:26:46.921Z,96.13
2023-03-19T22:29:21.186Z,96.07
2023-03-19T22:31:49.876Z,84.22
2023-03-19T22:34:19.013Z,96.75
2023-03-19T22:36:46.207Z,95.38
2023-03-19T22:39:13.812Z,88.30
2023-03-19T22:41:45.787Z,79.78
2023-03-19T22:44:31.465Z,81.35
2023-03-19T22:47:01.966Z,95.85
2023-03-19T22:49:30.085Z,84.07
2023-03-19T22:51:57.985Z,95.50
2023-03-19T22:54:25.822Z,82.63
2023-03-19T22:56:53.122Z,91.43
2023-03-19T22:59:20.984Z,72.90
2023-03-19T23:01:48.366Z,79.35
2023-03-19T23:04:22.212Z,86.10
2023-03-19T23:06:50.707Z,94.35
2023-03-19T23:09:26.900Z,93.20
2023-03-19T23:11:54.081Z,87.28
2023-03-19T23:14:29.501Z,91.65
2023-03-19T23:17:14.858Z,87.70
2023-03-19T23:19:41.856Z,91.53
2023-03-19T23:22:16.115Z,99.63
2023-03-19T23:24:44.904Z,86.97
2023-03-19T23:27:25.364Z,105.53
2023-03-19T23:29:53.132Z,96.20
2023-03-19T23:32:20.281Z,92.78
2023-03-19T23:34:58.041Z,84.80
2023-03-19T23:37:26.304Z,96.55
2023-03-19T23:39:53.816Z,110.95
2023-03-19T23:42:28.809Z,82.35
2023-03-19T23:44:58.865Z,107.97
2023-03-19T23:47:26.391Z,79.43
2023-03-19T23:49:53.102Z,74.40
2023-03-19T23:52:19.813Z,72.63
2023-03-19T23:54:46.685Z,86.68
2023-03-19T23:57:15.566Z,78.22
2023-03-19T23:59:44.396Z,74.28
